Time;durP1;ratioP1;P1;durP2;ratioP2;P2;SDS_P1;SDS_P2;PMS_P1;PMS_P2;Temp;Humidity;BMP_temperature;BMP_pressure;BME280_temperature;BME280_humidity;BME280_pressure;Samples;Min_cycle;Max_cycle;Signal;HPM_P1;HPM_P2
2023/03/19 00:01:46;;;;;;;1.57;1.20;;;;;;;10.04;89.63;100986.09;5055438;28;20473;-85
2023/03/19 00:04:25;;;;;;;1.10;1.00;;;;;;;9.95;89.38;100971.50;5054609;28;20025;-85
2023/03/19 00:06:50;;;;;;;1.20;1.10;;;;;;;9.96;89.70;100977.53;5054900;28;20025;-85
2023/03/19 00:09:16;;;;;;;1.23;1.13;;;;;;;10.07;89.40;100998.16;5054935;28;20021;-85
2023/03/19 00:12:02;;;;;;;1.10;1.00;;;;;;;10.00;90.47;100974.91;5055033;28;20095;-86
2023/03/19 00:14:27;;;;;;;1.15;1.05;;;;;;;9.98;89.60;100983.56;5054678;28;20102;-86
2023/03/19 00:16:53;;;;;;;1.23;1.13;;;;;;;9.98;90.24;100970.59;5053741;28;20029;-86
2023/03/19 00:19:18;;;;;;;1.30;1.13;;;;;;;10.00;90.10;100987.88;5054553;28;20063;-86
2023/03/19 00:22:03;;;;;;;1.80;1.30;;;;;;;10.01;90.40;100996.50;5054570;28;20029;-86
2023/03/19 00:24:29;;;;;;;0.80;0.80;;;;;;;9.92;90.13;100994.84;5053896;28;20041;-86
2023/03/19 00:26:54;;;;;;;1.40;1.30;;;;;;;10.01;89.83;100999.09;5054757;28;20133;-85
2023/03/19 00:29:21;;;;;;;1.77;1.50;;;;;;;9.99;90.80;100998.22;5055021;28;20400;-86
2023/03/19 00:31:46;;;;;;;;;;;;;;;9.98;90.52;100999.09;5054078;28;20414;-86
2023/03/19 00:34:32;;;;;;;1.90;1.43;;;;;;;9.94;90.16;100995.69;5054682;28;19972;-85
2023/03/19 00:37:00;;;;;;;1.40;1.30;;;;;;;9.92;89.90;100994.84;5054014;28;20037;-86
2023/03/19 00:39:32;;;;;;;1.60;1.50;;;;;;;9.89;89.97;100987.13;5053631;28;20016;-86
2023/03/19 00:41:57;;;;;;;1.70;1.27;;;;;;;9.89;90.20;100987.97;5054237;28;20043;-85
2023/03/19 00:44:22;;;;;;;1.50;1.40;;;;;;;9.94;90.39;101003.47;5054375;28;20024;-86
2023/03/19 00:46:47;;;;;;;1.37;1.27;;;;;;;9.92;90.43;100996.59;5052955;28;20048;-85
2023/03/19 00:49:13;;;;;;;1.50;1.40;;;;;;;9.88;90.33;100994.03;5054348;28;20511;-85
2023/03/19 00:51:42;;;;;;;1.47;1.30;;;;;;;9.89;90.25;100997.50;5053636;28;20026;-85
2023/03/19 00:54:16;;;;;;;1.40;1.30;;;;;;;9.80;91.76;100979.41;5054321;28;20431;-86
2023/03/19 00:56:53;;;;;;;1.27;1.17;;;;;;;9.88;90.85;100996.63;5054127;28;20496;-85
2023/03/19 00:59:34;;;;;;;1.70;1.50;;;;;;;9.83;91.10;100992.34;5053289;28;20368;-86
2023/03/19 01:01:59;;;;;;;1.40;1.30;;;;;;;9.79;91.04;100991.53;5053084;28;20048;-85
2023/03/19 01:04:24;;;;;;;1.57;1.30;;;;;;;9.86;91.41;101000.09;5054234;28;20029;-86
2023/03/19 01:06:50;;;;;;;1.33;1.23;;;;;;;9.76;90.98;100982.94;5052916;28;20035;-85
2023/03/19 01:09:16;;;;;;;1.53;1.40;;;;;;;9.77;90.98;100992.41;5054460;28;20025;-86
2023/03/19 01:11:41;;;;;;;1.57;1.47;;;;;;;9.77;91.27;100995.84;5053993;28;20378;-86
2023/03/19 01:14:17;;;;;;;1.60;1.50;;;;;;;9.72;91.26;100984.69;5052574;28;20041;-86
2023/03/19 01:16:44;;;;;;;1.58;1.48;;;;;;;9.74;91.29;100996.75;5053906;28;20025;-86
2023/03/19 01:19:11;;;;;;;;;;;;;;;9.79;91.49;101009.66;5053941;28;20108;-86
2023/03/19 01:21:36;;;;;;;1.83;1.70;;;;;;;9.79;91.51;101003.63;5053071;28;20051;-86
2023/03/19 01:24:01;;;;;;;1.80;1.60;;;;;;;9.77;91.54;101006.22;5053163;28;20477;-86
2023/03/19 01:26:27;;;;;;;1.73;1.50;;;;;;;9.70;91.81;100996.81;5053380;28;20065;-85
2023/03/19 01:28:52;;;;;;;1.30;1.20;;;;;;;9.69;92.24;100993.31;5052989;28;20389;-85
2023/03/19 01:31:23;;;;;;;1.57;1.47;;;;;;;9.73;91.57;101002.81;5053840;28;20477;-86
2023/03/19 01:33:48;;;;;;;1.67;1.58;;;;;;;9.73;91.93;100999.38;5052375;28;20029;-86
2023/03/19 01:36:13;;;;;;;1.60;1.50;;;;;;;9.71;91.76;100999.38;5053492;28;20108;-86
2023/03/19 01:38:42;;;;;;;2.17;1.70;;;;;;;9.68;92.05;100994.19;5053438;28;20033;-86
2023/03/19 01:41:10;;;;;;;2.83;1.90;;;;;;;9.72;92.12;101000.25;5051864;28;20043;-85
2023/03/19 01:43:36;;;;;;;1.90;1.80;;;;;;;9.66;92.48;100993.38;5033266;28;20056;-85
2023/03/19 01:46:13;;;;;;;2.50;1.80;;;;;;;9.73;92.30;100995.03;5033345;28;20048;-85
2023/03/19 01:48:43;;;;;;;1.83;1.65;;;;;;;9.65;92.61;100977.81;5032875;28;20065;-85
2023/03/19 01:51:17;;;;;;;2.42;1.80;;;;;;;9.74;92.66;100999.34;5033169;28;20064;-85
2023/03/19 01:53:50;;;;;;;2.58;1.60;;;;;;;9.74;93.03;101001.94;5033551;28;20021;-86
2023/03/19 01:56:26;;;;;;;2.10;1.80;;;;;;;9.75;92.80;101002.78;5032686;28;20385;-85
2023/03/19 01:58:56;;;;;;;2.90;1.80;;;;;;;9.69;92.58;100990.75;5032923;28;20022;-85
2023/03/19 02:01:21;;;;;;;2.70;1.90;;;;;;;9.76;93.42;100998.47;5032896;28;20017;-85
2023/03/19 02:03:49;;;;;;;2.00;1.77;;;;;;;9.72;93.07;100990.72;5031938;28;20128;-85
2023/03/19 02:06:19;;;;;;;2.03;1.80;;;;;;;9.78;94.44;100991.56;5033261;28;20033;-86
2023/03/19 02:08:46;;;;;;;2.20;2.00;;;;;;;9.74;93.53;100998.47;5032888;28;20480;-85
2023/03/19 02:11:12;;;;;;;1.92;1.80;;;;;;;9.72;93.88;100993.31;5049596;28;20039;-85
2023/03/19 02:13:38;;;;;;;1.90;1.63;;;;;;;9.74;93.98;101001.06;5052377;28;20029;-86
2023/03/19 02:16:03;;;;;;;1.77;1.67;;;;;;;9.63;94.80;100985.63;5051754;28;20805;-85
2023/03/19 02:18:30;;;;;;;1.80;1.70;;;;;;;9.74;93.90;100998.47;5052644;28;20032;-86
2023/03/19 02:21:07;;;;;;;1.80;1.70;;;;;;;9.74;94.30;101001.06;5052547;28;20013;-86
2023/03/19 02:23:54;;;;;;;1.80;1.70;;;;;;;9.72;94.26;101001.09;5052218;28;20024;-86
2023/03/19 02:26:22;;;;;;;1.70;1.50;;;;;;;9.67;94.29;100996.81;5052623;28;20128;-85
2023/03/19 02:28:52;;;;;;;2.38;1.80;;;;;;;9.68;94.48;100994.19;5051406;28;20021;-84
2023/03/19 02:31:20;;;;;;;2.22;2.00;;;;;;;9.69;93.86;101006.28;5051778;28;20028;-86
2023/03/19 02:34:04;;;;;;;1.98;1.75;;;;;;;9.59;94.37;100989.09;5052434;28;20021;-85
2023/03/19 02:36:46;;;;;;;1.80;1.70;;;;;;;9.66;95.83;100995.09;5051931;28;20021;-86
2023/03/19 02:39:37;;;;;;;1.75;1.50;;;;;;;9.62;96.56;100989.09;5051715;28;20037;-86
2023/03/19 02:44:57;;;;;;;2.00;1.80;;;;;;;9.54;95.89;100990.91;5051372;28;20102;-85
2023/03/19 02:47:23;;;;;;;1.48;1.38;;;;;;;9.55;96.92;100988.28;5052226;28;20103;-85
2023/03/19 02:49:49;;;;;;;1.50;1.40;;;;;;;9.56;95.88;101002.13;5051773;28;20029;-85
2023/03/19 02:52:14;;;;;;;1.40;1.30;;;;;;;9.61;95.85;101012.44;5052883;28;20075;-85
2023/03/19 02:54:40;;;;;;;1.20;1.10;;;;;;;9.56;95.47;101008.13;5056457;28;20075;-86
2023/03/19 02:57:05;;;;;;;1.20;1.10;;;;;;;9.57;95.96;101012.44;5056148;28;20485;-86
2023/03/19 02:59:31;;;;;;;1.30;1.20;;;;;;;9.58;96.33;101014.16;5055395;28;20025;-86
2023/03/19 03:01:56;;;;;;;1.33;1.23;;;;;;;9.57;95.75;101015.03;5055972;28;20067;-86
2023/03/19 03:04:22;;;;;;;1.67;1.53;;;;;;;9.57;95.26;101015.03;5056382;28;20036;-85
2023/03/19 03:06:47;;;;;;;1.43;1.33;;;;;;;9.55;96.12;101010.75;5055416;28;20482;-86
2023/03/19 03:09:13;;;;;;;1.60;1.40;;;;;;;9.60;96.07;101015.91;5056587;28;20060;-85
2023/03/19 03:11:40;;;;;;;1.60;1.50;;;;;;;9.60;96.17;101016.75;5056414;28;20029;-86
2023/03/19 03:14:18;;;;;;;1.45;1.35;;;;;;;9.59;96.89;101025.38;5054985;28;20033;-86
2023/03/19 03:16:44;;;;;;;1.50;1.40;;;;;;;9.60;96.22;101010.72;5056002;28;20028;-85
2023/03/19 03:19:15;;;;;;;1.50;1.40;;;;;;;9.54;96.17;101009.03;5055305;28;20029;-85
2023/03/19 03:21:41;;;;;;;1.50;1.40;;;;;;;9.57;96.39;101012.44;5055700;28;20032;-85
2023/03/19 03:24:09;;;;;;;1.60;1.23;;;;;;;9.58;96.49;101009.00;5055891;28;20021;-86
2023/03/19 03:26:44;;;;;;;1.67;1.33;;;;;;;9.60;96.53;101018.50;5054801;28;20045;-85
2023/03/19 03:29:09;;;;;;;1.40;1.30;;;;;;;9.54;95.95;101009.03;5055727;28;20531;-85
2023/03/19 03:31:44;;;;;;;1.50;1.40;;;;;;;9.58;96.37;101019.34;5055939;28;20048;-86
2023/03/19 03:34:09;;;;;;;1.35;1.25;;;;;;;9.58;96.12;101019.34;5054598;28;20465;-85
2023/03/19 03:36:36;;;;;;;1.50;1.40;;;;;;;9.54;96.34;101015.06;5055601;28;20021;-86
2023/03/19 03:39:03;;;;;;;1.30;1.20;;;;;;;9.58;96.22;101018.47;5055396;28;20060;-85
2023/03/19 03:41:34;;;;;;;1.40;1.30;;;;;;;9.56;96.05;101021.09;5054904;28;20484;-85
2023/03/19 03:44:00;;;;;;;1.80;1.70;;;;;;;9.54;95.34;101011.63;5055329;28;20067;-85
2023/03/19 03:46:28;;;;;;;1.90;1.80;;;;;;;9.53;95.44;101015.09;5055663;28;20416;-86
2023/03/19 03:48:53;;;;;;;2.00;1.80;;;;;;;9.46;95.71;101013.44;5054618;28;20025;-85
2023/03/19 03:51:19;;;;;;;1.73;1.63;;;;;;;9.46;95.67;101010.84;5055695;28;20028;-85
2023/03/19 03:53:45;;;;;;;1.87;1.70;;;;;;;9.37;95.78;101020.38;5055257;28;20052;-85
2023/03/19 03:56:10;;;;;;;1.70;1.60;;;;;;;9.32;95.12;101016.97;5054478;28;20025;-85
2023/03/19 03:58:36;;;;;;;1.67;1.57;;;;;;;9.36;95.45;101028.16;5055555;28;20373;-85
2023/03/19 04:01:16;;;;;;;1.83;1.73;;;;;;;9.32;95.42;101035.09;5054744;28;20025;-85
2023/03/19 04:03:41;;;;;;;2.65;1.98;;;;;;;9.20;95.13;101030.00;5053671;28;20027;-85
2023/03/19 04:06:13;;;;;;;2.27;1.90;;;;;;;9.21;95.14;101034.31;5054666;28;20107;-85
2023/03/19 04:08:42;;;;;;;4.28;2.33;;;;;;;9.14;95.25;101017.97;5054498;28;20431;-85
2023/03/19 04:11:08;;;;;;;2.17;1.95;;;;;;;9.10;95.13;101016.25;5054999;28;20064;-85
2023/03/19 04:13:45;;;;;;;2.23;1.90;;;;;;;9.09;95.15;101019.69;5054893;28;20028;-85
2023/03/19 04:16:11;;;;;;;2.30;2.10;;;;;;;9.14;95.26;101030.03;5054260;28;20106;-85
2023/03/19 04:18:37;;;;;;;2.73;2.33;;;;;;;9.08;95.17;101028.34;5054889;28;20067;-85
2023/03/19 04:21:04;;;;;;;2.40;2.20;;;;;;;9.05;95.01;101033.56;5054349;28;20021;-85
2023/03/19 04:23:29;;;;;;;;;;;;;;;9.00;95.64;101033.59;5054651;28;20477;-85
2023/03/19 04:26:01;;;;;;;2.10;1.90;;;;;;;8.93;95.31;101031.88;5053937;28;19923;-85
2023/03/19 04:28:28;;;;;;;2.40;2.10;;;;;;;8.84;95.04;101031.94;5054965;28;20017;-85
2023/03/19 04:31:06;;;;;;;2.67;2.25;;;;;;;8.83;94.99;101043.16;5053541;28;20450;-85
2023/03/19 04:33:32;;;;;;;2.15;2.00;;;;;;;8.73;94.96;101037.16;5054754;28;20512;-85
2023/03/19 04:36:00;;;;;;;2.78;2.10;;;;;;;8.68;94.86;101037.16;5036246;28;20029;-85
2023/03/19 04:38:26;;;;;;;2.42;2.03;;;;;;;8.62;95.07;101032.03;5054254;28;20444;-86
2023/03/19 04:40:52;;;;;;;2.28;1.90;;;;;;;8.64;95.15;101038.91;5054383;28;20025;-85
2023/03/19 04:43:18;;;;;;;2.23;2.03;;;;;;;8.57;95.16;101036.34;5054376;28;20120;-85
2023/03/19 04:45:51;;;;;;;1.90;1.80;;;;;;;8.49;95.42;101034.66;5050787;28;20041;-86
2023/03/19 04:48:20;;;;;;;1.90;1.70;;;;;;;8.41;95.27;101027.75;5053930;28;20108;-85
2023/03/19 04:50:46;;;;;;;2.00;1.80;;;;;;;8.40;95.38;101041.56;5050696;28;20669;-85
2023/03/19 04:53:11;;;;;;;2.03;1.90;;;;;;;8.39;95.27;101037.28;5052422;28;20021;-86
2023/03/19 04:55:37;;;;;;;2.80;2.03;;;;;;;8.36;95.38;101053.63;5054441;28;20029;-86
2023/03/19 04:58:09;;;;;;;2.70;2.00;;;;;;;8.24;95.09;101031.28;5053302;28;20029;-85
2023/03/19 05:00:35;;;;;;;2.80;2.10;;;;;;;8.30;95.32;101051.09;5054002;28;20025;-85
2023/03/19 05:03:07;;;;;;;2.40;2.00;;;;;;;8.19;95.48;101039.03;5053815;28;20033;-85
2023/03/19 05:05:41;;;;;;;2.90;2.35;;;;;;;8.18;95.81;101045.06;5053553;28;20120;-85
2023/03/19 05:08:07;;;;;;;3.00;2.30;;;;;;;8.13;95.61;101051.97;5053781;28;20028;-85
2023/03/19 05:10:34;;;;;;;2.73;2.30;;;;;;;8.16;95.74;101064.03;5053667;28;20444;-86
2023/03/19 05:13:06;;;;;;;2.20;2.00;;;;;;;8.08;95.60;101063.19;5052976;28;20500;-85
2023/03/19 05:15:47;;;;;;;2.40;2.20;;;;;;;8.06;95.68;101065.78;5052540;28;20544;-85
2023/03/19 05:18:12;;;;;;;2.60;2.22;;;;;;;7.97;95.82;101061.47;5053704;28;20029;-85
2023/03/19 05:20:46;;;;;;;2.77;2.30;;;;;;;7.86;95.79;101050.28;5053353;28;20063;-86
2023/03/19 05:23:12;;;;;;;3.00;2.30;;;;;;;7.96;95.79;101075.25;5053736;28;20067;-86
2023/03/19 05:25:37;;;;;;;3.70;2.50;;;;;;;7.85;95.83;101053.72;5053305;28;20025;-85
2023/03/19 05:28:04;;;;;;;3.53;2.30;;;;;;;7.89;96.27;101071.81;5052555;28;20037;-86
2023/03/19 05:30:30;;;;;;;2.78;2.10;;;;;;;7.83;96.42;101071.81;5053573;28;20035;-85
2023/03/19 05:32:59;;;;;;;2.20;1.80;;;;;;;7.78;96.19;101070.94;5052610;28;20104;-86
2023/03/19 05:35:26;;;;;;;2.55;2.08;;;;;;;7.78;96.17;101073.53;5053516;28;20108;-86
2023/03/19 05:37:52;;;;;;;;;;;;;;;7.76;96.17;101080.44;5053347;28;20124;-86
2023/03/19 05:40:17;;;;;;;2.83;2.10;;;;;;;7.73;96.31;101077.84;5052691;28;19982;-85
2023/03/19 05:42:43;;;;;;;2.70;2.30;;;;;;;7.70;96.31;101085.59;5053500;28;20040;-86
2023/03/19 05:45:08;;;;;;;2.70;2.00;;;;;;;7.69;96.85;101078.69;5052403;28;20039;-85
2023/03/19 05:47:34;;;;;;;1.87;1.77;;;;;;;7.66;96.38;101091.59;5052825;28;20025;-85
2023/03/19 05:49:59;;;;;;;2.28;2.00;;;;;;;7.56;96.48;101080.41;5053186;28;20443;-86
2023/03/19 05:52:25;;;;;;;1.90;1.80;;;;;;;7.58;96.34;101102.81;5053419;28;20021;-86
2023/03/19 05:54:51;;;;;;;1.80;1.70;;;;;;;7.55;96.58;101101.94;5052115;28;20116;-85
2023/03/19 05:57:16;;;;;;;2.00;1.80;;;;;;;7.52;96.32;101104.50;5053191;28;20032;-86
2023/03/19 05:59:42;;;;;;;2.37;1.97;;;;;;;7.48;96.86;101105.38;5052874;28;20025;-86
2023/03/19 06:02:09;;;;;;;1.93;1.77;;;;;;;7.42;96.59;101101.06;5034265;28;20021;-85
2023/03/19 06:04:34;;;;;;;2.03;1.83;;;;;;;7.37;96.63;101101.06;5052917;28;20040;-86
2023/03/19 06:07:03;;;;;;;2.00;1.90;;;;;;;7.32;97.33;101097.59;5052546;28;20029;-85
2023/03/19 06:09:30;;;;;;;1.92;1.83;;;;;;;7.22;97.50;101104.44;5051649;28;20438;-86
2023/03/19 06:11:56;;;;;;;2.10;1.90;;;;;;;7.20;97.07;101111.34;5052795;28;20029;-85
2023/03/19 06:14:23;;;;;;;2.20;2.00;;;;;;;7.23;96.95;101119.09;5052928;28;20021;-86
2023/03/19 06:16:48;;;;;;;2.85;2.20;;;;;;;7.24;96.86;101120.81;5051480;28;20037;-86
2023/03/19 06:19:13;;;;;;;2.90;2.20;;;;;;;7.25;96.89;101119.94;5052967;28;20017;-86
2023/03/19 06:21:39;;;;;;;2.77;2.17;;;;;;;7.27;96.84;101122.53;5052329;28;20525;-86
2023/03/19 06:24:05;;;;;;;2.53;2.10;;;;;;;7.22;97.04;101117.34;5051728;28;20117;-86
2023/03/19 06:26:30;;;;;;;2.85;2.30;;;;;;;7.25;96.65;101119.09;5052535;28;20105;-86
2023/03/19 06:28:56;;;;;;;3.63;2.47;;;;;;;7.30;97.01;101135.44;5052583;28;20021;-86
2023/03/19 06:31:21;;;;;;;3.20;2.43;;;;;;;7.32;97.35;101130.31;5051504;28;20110;-86
2023/03/19 06:33:48;;;;;;;3.37;2.50;;;;;;;7.35;97.13;101132.88;5052164;28;20031;-85
2023/03/19 06:36:13;;;;;;;3.67;2.47;;;;;;;7.39;97.01;101140.63;5051877;28;20139;-85
2023/03/19 06:38:41;;;;;;;3.40;2.60;;;;;;;7.41;97.21;101141.50;5052631;28;20111;-86
2023/03/19 06:41:06;;;;;;;3.20;2.50;;;;;;;7.45;97.43;101139.78;5053151;28;20040;-91
2023/03/19 06:43:35;;;;;;;3.20;2.40;;;;;;;7.47;97.94;101138.09;5053638;28;20021;-89
2023/03/19 06:46:01;;;;;;;2.78;2.25;;;;;;;7.49;97.55;101140.66;5052948;28;20105;-90
2023/03/19 06:48:47;;;;;;;2.30;2.10;;;;;;;7.46;97.72;101132.94;5054280;28;20052;-89
2023/03/19 06:51:12;;;;;;;2.30;2.10;;;;;;;7.53;97.96;101142.41;5053963;28;20127;-89
2023/03/19 06:54:04;;;;;;;2.20;1.90;;;;;;;7.62;98.44;101149.31;5053833;28;20074;-90
2023/03/19 06:56:29;;;;;;;2.10;1.90;;;;;;;7.78;98.27;101151.03;5054183;28;20029;-90
2023/03/19 06:58:55;;;;;;;2.50;2.30;;;;;;;8.01;98.43;101142.44;5053522;28;20025;-89
2023/03/19 07:01:20;;;;;;;2.13;1.90;;;;;;;8.15;97.78;101143.31;5053736;28;20025;-89
2023/03/19 07:03:46;;;;;;;2.10;1.90;;;;;;;8.92;99.44;101152.69;5053526;28;20048;-89
2023/03/19 07:06:11;;;;;;;2.10;1.90;;;;;;;10.88;99.95;101149.53;5054513;28;20051;-88
2023/03/19 07:08:36;;;;;;;1.80;1.70;;;;;;;13.09;95.24;101155.53;5057789;28;20104;-89
2023/03/19 07:11:06;;;;;;;1.90;1.70;;;;;;;14.94;90.84;101158.94;5053826;28;20021;-89
2023/03/19 07:13:32;;;;;;;2.33;2.10;;;;;;;16.10;87.87;101165.88;5053120;28;20082;-89
2023/03/19 07:16:03;;;;;;;2.00;1.85;;;;;;;16.34;81.88;101165.94;5052652;28;20025;-87
2023/03/19 07:18:29;;;;;;;2.42;1.90;;;;;;;15.81;80.65;101172.03;5050052;28;20065;-84
2023/03/19 07:20:54;;;;;;;3.53;2.30;;;;;;;14.97;79.31;101172.75;5051876;28;20096;-85
2023/03/19 07:23:20;;;;;;;2.70;2.40;;;;;;;14.21;81.73;101186.94;5052511;28;20074;-84
2023/03/19 07:25:46;;;;;;;3.77;2.50;;;;;;;13.45;82.80;101180.91;5051253;28;20043;-88
2023/03/19 07:28:17;;;;;;;3.25;2.60;;;;;;;12.77;84.63;101185.69;5052428;28;20035;-82
2023/03/19 07:30:42;;;;;;;4.03;2.95;;;;;;;12.24;85.94;101192.72;5052273;28;20035;-86
2023/03/19 07:33:09;;;;;;;5.40;3.30;;;;;;;11.82;87.72;101188.97;5050993;28;20029;-86
2023/03/19 07:35:35;;;;;;;;;;;;;;;11.49;88.27;101204.19;5052666;28;20029;-86
2023/03/19 07:38:01;;;;;;;6.03;3.45;;;;;;;11.18;89.79;101190.75;5052466;28;19920;-86
2023/03/19 07:40:27;;;;;;;6.50;3.77;;;;;;;10.99;92.44;101203.06;5055164;28;20029;-86
2023/03/19 07:42:52;;;;;;;5.23;3.30;;;;;;;10.85;91.58;101200.66;5055387;28;20029;-86
2023/03/19 07:45:18;;;;;;;4.70;3.20;;;;;;;10.71;92.92;101187.78;5055710;28;20086;-86
2023/03/19 07:47:43;;;;;;;5.80;3.50;;;;;;;10.64;93.06;101195.66;5052487;28;20041;-86
2023/03/19 07:50:10;;;;;;;6.83;3.83;;;;;;;10.54;94.64;101191.41;5041686;28;20025;-86
2023/03/19 07:52:36;;;;;;;5.25;3.60;;;;;;;10.53;94.87;101196.63;5035728;28;20026;-83
2023/03/19 07:55:02;;;;;;;6.00;3.72;;;;;;;10.58;96.35;101200.03;5047864;28;20473;-86
2023/03/19 07:57:28;;;;;;;4.70;3.30;;;;;;;10.64;96.26;101198.25;5055098;28;20584;-88
2023/03/19 07:59:59;;;;;;;6.07;3.77;;;;;;;10.62;95.63;101197.38;5055317;28;20037;-85
2023/03/19 08:02:25;;;;;;;6.05;3.55;;;;;;;10.74;96.30;101205.94;5055409;28;20025;-88
2023/03/19 08:04:53;;;;;;;5.20;3.60;;;;;;;10.68;95.71;101199.06;5055930;28;20017;-88
2023/03/19 08:07:19;;;;;;;7.63;4.05;;;;;;;10.65;95.63;101207.75;5056300;28;20021;-88
2023/03/19 08:09:44;;;;;;;7.70;4.03;;;;;;;10.65;96.71;101215.53;5055229;28;20025;-87
2023/03/19 08:12:09;;;;;;;8.17;4.27;;;;;;;10.70;95.69;101209.41;5055661;28;20024;-89
2023/03/19 08:14:35;;;;;;;9.57;4.57;;;;;;;10.65;95.79;101212.06;5054509;28;20044;-88
2023/03/19 08:17:04;;;;;;;8.00;4.40;;;;;;;10.58;95.61;101207.81;5055689;28;20459;-87
2023/03/19 08:19:29;;;;;;;7.72;3.88;;;;;;;10.59;95.02;101212.13;5054910;28;20029;-87
2023/03/19 08:21:54;;;;;;;6.20;3.80;;;;;;;10.54;94.94;101217.38;5054699;28;20036;-87
2023/03/19 08:24:22;;;;;;;7.23;3.50;;;;;;;10.50;94.75;101219.16;5054964;28;20032;-87
2023/03/19 08:26:48;;;;;;;8.52;4.05;;;;;;;10.52;94.90;101221.72;5053639;28;20471;-86
2023/03/19 08:29:13;;;;;;;8.70;4.47;;;;;;;10.49;94.98;101225.19;5053394;28;20112;-85
2023/03/19 08:31:39;;;;;;;9.40;4.57;;;;;;;10.45;94.73;101235.63;5054700;28;20108;-85
2023/03/19 08:34:09;;;;;;;9.60;4.73;;;;;;;10.41;94.95;101229.59;5054539;28;20035;-85
2023/03/19 08:36:35;;;;;;;9.75;4.85;;;;;;;10.46;94.50;101229.56;5053839;28;20045;-86
2023/03/19 08:39:00;;;;;;;7.80;3.97;;;;;;;10.47;94.85;101223.50;5054529;28;20025;-85
2023/03/19 08:41:25;;;;;;;6.17;3.57;;;;;;;10.59;95.09;101230.31;5054472;28;20021;-86
2023/03/19 08:43:51;;;;;;;4.87;3.30;;;;;;;10.72;95.97;101228.44;5053251;28;20132;-87
2023/03/19 08:46:17;;;;;;;5.27;3.33;;;;;;;10.80;95.03;101243.09;5054360;28;20108;-86
2023/03/19 08:48:43;;;;;;;6.30;3.07;;;;;;;10.92;95.12;101247.28;5054573;28;20021;-86
2023/03/19 08:51:09;;;;;;;8.02;3.20;;;;;;;11.04;94.50;101254.09;5052668;28;20303;-86
2023/03/19 08:53:35;;;;;;;7.33;3.20;;;;;;;11.14;94.91;101252.28;5054032;28;20500;-87
2023/03/19 08:56:03;;;;;;;8.05;3.67;;;;;;;11.25;93.83;101257.31;5053649;28;20032;-86
2023/03/19 08:58:29;;;;;;;10.35;4.53;;;;;;;11.35;91.51;101248.53;5044267;28;20160;-86
2023/03/19 09:01:09;;;;;;;7.20;3.80;;;;;;;11.44;92.75;101255.38;5043997;28;20104;-85
2023/03/19 09:03:48;;;;;;;7.47;3.75;;;;;;;11.57;92.20;101256.06;5044161;28;20017;-85
2023/03/19 09:06:14;;;;;;;8.82;4.40;;;;;;;11.66;91.90;101263.75;5041685;28;20065;-86
2023/03/19 09:08:41;;;;;;;7.40;3.88;;;;;;;11.65;91.82;101263.78;5038174;28;20029;-85
2023/03/19 09:11:06;;;;;;;6.55;3.75;;;;;;;11.64;91.69;101268.13;5038569;28;20064;-86
2023/03/19 09:13:33;;;;;;;6.70;3.57;;;;;;;11.63;91.22;101266.41;5053898;28;20052;-85
2023/03/19 09:16:01;;;;;;;7.95;4.07;;;;;;;11.55;89.99;101269.09;5053616;28;20035;-85
2023/03/19 09:18:27;;;;;;;10.05;4.63;;;;;;;11.40;89.97;101269.28;5053222;28;20024;-86
2023/03/19 09:20:53;;;;;;;8.67;4.20;;;;;;;11.39;90.62;101268.44;5053212;28;20447;-85
2023/03/19 09:23:19;;;;;;;6.93;3.97;;;;;;;11.56;92.17;101276.03;5047391;28;20032;-86
2023/03/19 09:25:48;;;;;;;9.13;3.70;;;;;;;11.78;90.82;101272.25;5047633;28;20029;-91
2023/03/19 09:28:13;;;;;;;6.43;3.47;;;;;;;11.99;91.63;101272.00;5045681;28;20104;-86
2023/03/19 09:30:38;;;;;;;6.23;3.33;;;;;;;12.35;91.48;101271.50;5044075;28;20112;-85
2023/03/19 09:33:04;;;;;;;5.50;3.30;;;;;;;12.72;89.69;101281.28;5043429;28;20033;-89
2023/03/19 09:35:31;;;;;;;5.22;2.90;;;;;;;12.99;88.65;101281.69;5045266;28;20036;-86
2023/03/19 09:38:00;;;;;;;;;;;;;;;13.26;88.49;101285.50;5036655;28;20076;-86
2023/03/19 09:40:55;;;;;;;5.68;2.63;;;;;;;13.43;88.39;101280.00;5040837;28;19948;-86
2023/03/19 09:43:30;;;;;;;3.45;2.60;;;;;;;13.72;86.67;101299.41;5043942;28;20025;-85
2023/03/19 09:45:57;;;;;;;9.57;3.30;;;;;;;13.79;84.89;101296.66;5048201;28;20028;-86
2023/03/19 09:48:38;;;;;;;7.25;3.03;;;;;;;13.81;83.75;101306.16;5050190;28;20643;-86
2023/03/19 09:51:07;;;;;;;6.60;3.70;;;;;;;13.75;84.90;101307.16;5050206;28;20021;-86
2023/03/19 09:53:47;;;;;;;7.90;3.47;;;;;;;13.68;85.29;101308.19;5045361;28;20383;-86
2023/03/19 09:56:15;;;;;;;6.90;3.47;;;;;;;13.71;85.65;101308.13;5052217;28;20174;-86
2023/03/19 09:58:41;;;;;;;8.30;3.40;;;;;;;13.77;84.96;101295.81;5045172;28;20014;-86
2023/03/19 10:01:22;;;;;;;7.57;3.95;;;;;;;13.93;85.07;101307.66;5041701;28;20028;-86
2023/03/19 10:04:15;;;;;;;8.48;3.95;;;;;;;14.05;83.07;101310.00;5036285;28;20029;-86
2023/03/19 10:06:40;;;;;;;8.18;3.85;;;;;;;14.09;82.04;101304.69;5043567;28;20117;-86
2023/03/19 10:09:27;;;;;;;6.07;3.93;;;;;;;14.13;82.36;101307.19;5048382;28;20115;-85
2023/03/19 10:11:56;;;;;;;;;;;;;;;14.21;82.73;101314.84;5045789;28;20033;-87
2023/03/19 10:14:22;;;;;;;6.15;3.60;;;;;;;14.29;80.07;101317.28;5046910;28;19923;-85
2023/03/19 10:17:28;;;;;;;6.70;3.73;;;;;;;14.33;80.55;101311.13;5044905;28;20032;-85
2023/03/19 10:20:21;;;;;;;4.20;3.13;;;;;;;14.42;81.34;101310.03;4993018;28;20120;-86
2023/03/19 10:22:51;;;;;;;3.40;2.88;;;;;;;14.41;82.62;101314.41;5048726;28;20025;-86
2023/03/19 10:25:25;;;;;;;5.97;3.00;;;;;;;14.49;81.52;101303.78;5051518;28;20029;-86
2023/03/19 10:28:12;;;;;;;7.18;3.50;;;;;;;14.60;80.87;101306.09;5049271;28;20037;-87
2023/03/19 10:30:38;;;;;;;5.38;2.90;;;;;;;14.63;81.43;101317.38;5045678;28;20031;-86
2023/03/19 10:33:25;;;;;;;5.70;3.00;;;;;;;14.59;80.52;101315.72;5051225;28;20065;-86
2023/03/19 10:36:00;;;;;;;4.85;2.97;;;;;;;14.55;80.27;101310.59;5044388;28;20026;-85
2023/03/19 10:38:26;;;;;;;9.37;3.47;;;;;;;14.45;78.97;101329.09;5043311;28;20032;-86
2023/03/19 10:41:17;;;;;;;6.50;3.03;;;;;;;14.44;79.92;101321.28;5037849;28;20276;-86
2023/03/19 10:43:50;;;;;;;5.53;3.17;;;;;;;14.42;78.85;101318.72;5037803;28;20053;-86
2023/03/19 10:46:16;;;;;;;3.53;2.50;;;;;;;14.38;80.31;101318.84;5041747;28;20022;-86
2023/03/19 10:48:45;;;;;;;5.22;2.70;;;;;;;14.44;79.56;101324.78;5044211;28;20052;-85
2023/03/19 10:51:17;;;;;;;4.05;2.63;;;;;;;14.47;80.30;101319.47;5049470;28;20112;-85
2023/03/19 10:53:43;;;;;;;5.07;2.25;;;;;;;14.77;78.17;101326.63;5041649;28;20087;-86
2023/03/19 10:56:33;;;;;;;3.13;2.10;;;;;;;14.99;77.97;101329.56;5042994;28;20033;-86
2023/03/19 10:59:37;;;;;;;5.15;2.25;;;;;;;15.00;77.75;101327.78;5043436;28;20092;-86
2023/03/19 11:02:16;;;;;;;3.55;2.20;;;;;;;14.94;78.29;101332.28;5040106;28;20048;-86
2023/03/19 11:04:41;;;;;;;5.45;2.05;;;;;;;14.93;79.77;101327.97;5050915;28;20021;-85
2023/03/19 11:07:26;;;;;;;2.53;1.90;;;;;;;14.78;77.66;101310.91;5050392;28;20033;-86
2023/03/19 11:10:05;;;;;;;3.00;1.88;;;;;;;14.82;79.53;101329.97;5039057;28;20048;-86
2023/03/19 11:12:36;;;;;;;4.97;2.20;;;;;;;14.94;74.64;101332.28;5039022;28;20513;-87
2023/03/19 11:15:04;;;;;;;3.78;2.53;;;;;;;14.88;77.67;101335.03;5051991;28;20409;-86
2023/03/19 11:17:54;;;;;;;3.45;2.40;;;;;;;14.94;78.46;101334.91;5047589;28;20021;-86
2023/03/19 11:20:26;;;;;;;4.35;2.40;;;;;;;15.02;75.97;101339.06;5045182;28;20034;-86
2023/03/19 11:22:53;;;;;;;2.85;2.28;;;;;;;15.03;77.58;101338.16;5051808;28;20028;-88
2023/03/19 11:25:30;;;;;;;3.80;2.30;;;;;;;15.00;78.54;101339.13;5055901;28;20447;-87
2023/03/19 11:28:21;;;;;;;3.72;2.70;;;;;;;14.92;76.94;101347.16;5036233;28;20482;-89
2023/03/19 11:31:07;;;;;;;2.50;2.25;;;;;;;14.90;78.82;101341.09;5035781;28;20555;-83
2023/03/19 11:33:42;;;;;;;4.18;2.33;;;;;;;14.83;77.03;101350.84;5035035;28;20496;-88
2023/03/19 11:36:21;;;;;;;2.70;2.30;;;;;;;14.68;76.58;101340.78;5036180;28;20037;-87
2023/03/19 11:39:17;;;;;;;3.05;2.20;;;;;;;14.60;78.73;101353.13;5036250;28;20029;-87
2023/03/19 11:42:21;;;;;;;2.20;2.00;;;;;;;14.52;78.57;101348.94;5036418;28;20022;-87
2023/03/19 11:45:04;;;;;;;2.40;2.10;;;;;;;14.45;78.36;101349.13;5035648;28;20045;-86
2023/03/19 11:47:46;;;;;;;3.33;2.28;;;;;;;14.39;77.77;101349.28;5029347;28;20052;-87